Hlavní strana
METAR-TAF:

METAR-TAF

Letiště :

Lanseria, Jihoafrická republika

zeměpisná šířka: 25-56S, zeměpisná délka: 027-56E, výška: 1377 m

Aktuální stav počasí

Zpráva byla vytvořena před 57 minutami, v 18:00 UTC
Bezvětří
Teplota 17°C
Vlhkost vzduchu 42%
Tlak 1027 hPa
Viditelnost 10 km a více
Žádná oblačnost pod 1500 m, nevyskytují se cumulonimby.

METAR: FALA 231800Z 00000KT CAVOK 17/04 Q1027 NOSIG

Čas: 20:57 (18:57 UTC)

Předpověď počasí

Zpráva byla vytvořena před 2 hodinami a 57 minutami, v 16:00 UTC
Předpověď platná od 23 v 18 UTC do 24 v 18 UTC
vítr z různých směrů 3 kt
Viditelnost 10 km a více
Žádná oblačnost pod 1500 m, nevyskytují se cumulonimby.
Změna
od 24 v 08 UTC do 24 v 10 UTC
Severoseverozápadní vítr 7 kt

TAF: FALA 231600Z 2318/2418 VRB03KT CAVOK BECMG 2408/2410 33007KT TX24/2413Z TN08/2404Z

Stav a předpovědi počasí z více než 4 000 letišť (zprávy METAR a TAF).

Červené a žluté tečky na mapě představují dostupné meteorologické stanice.

Když kurzor umístíte na tečku, zobrazí se název stanice.

Pak kliknutím zobrazíte stav a předpověď počasí.

Chcete-li změnit mapu, kliknutím na zelené tlačítko se znaménkem +mapu přiblížíte, kliknutím na zelené tlačítko se znaménkem – mapu oddálíte a kliknutím na zelené šipky přejdete na sousední mapy.


METAR-TAF: